Time;durP1;ratioP1;P1;durP2;ratioP2;P2;SDS_P1;SDS_P2;PMS_P1;PMS_P2;Temp;Humidity;BMP_temperature;BMP_pressure;BME280_temperature;BME280_humidity;BME280_pressure;Samples;Min_cycle;Max_cycle;Signal;HPM_P1;HPM_P2
2022/05/18 00:00:51;;;;;;;2.17;0.35;;;15.70;99.90;;;;;;4996617;28;20503;-73
2022/05/18 00:03:24;;;;;;;4.75;0.60;;;15.70;99.90;;;;;;4995188;28;20034;-74
2022/05/18 00:05:52;;;;;;;2.90;0.55;;;15.90;99.90;;;;;;4995056;28;20027;-73
2022/05/18 00:08:19;;;;;;;2.85;0.40;;;15.90;99.90;;;;;;4995982;28;20050;-73
2022/05/18 00:10:49;;;;;;;1.67;0.38;;;16.00;99.90;;;;;;4994889;28;20030;-74
2022/05/18 00:13:18;;;;;;;1.45;0.40;;;16.00;99.90;;;;;;4994986;28;20100;-74
2022/05/18 00:15:47;;;;;;;2.63;0.40;;;16.10;99.90;;;;;;4994968;28;20029;-75
2022/05/18 00:18:15;;;;;;;1.80;0.50;;;16.10;99.90;;;;;;4994902;28;20380;-74
2022/05/18 00:20:42;;;;;;;3.72;0.63;;;16.20;99.90;;;;;;4994782;28;20406;-75
2022/05/18 00:23:09;;;;;;;2.40;0.65;;;16.20;99.90;;;;;;4993786;28;20563;-74
2022/05/18 00:25:41;;;;;;;2.42;0.90;;;16.30;99.90;;;;;;4994646;28;20125;-75
2022/05/18 00:28:09;;;;;;;2.55;0.47;;;16.40;99.90;;;;;;4996348;28;20484;-75
2022/05/18 00:30:38;;;;;;;3.30;0.50;;;16.40;99.90;;;;;;4994582;28;20069;-75
2022/05/18 00:33:08;;;;;;;1.48;0.32;;;16.40;99.90;;;;;;4994548;28;20391;-75
2022/05/18 00:35:36;;;;;;;3.20;0.70;;;16.40;99.90;;;;;;4995999;28;20364;-75
2022/05/18 00:38:05;;;;;;;2.22;0.35;;;16.30;99.90;;;;;;4995792;28;20018;-75
2022/05/18 00:40:33;;;;;;;3.13;0.50;;;16.30;99.90;;;;;;4995664;28;20023;-74
2022/05/18 00:43:01;;;;;;;2.28;0.50;;;16.30;99.90;;;;;;4995695;28;20073;-74
2022/05/18 00:45:29;;;;;;;2.58;0.65;;;16.50;99.90;;;;;;4994349;28;20026;-74
2022/05/18 00:47:56;;;;;;;1.50;0.60;;;16.70;99.90;;;;;;4994304;28;20113;-74
2022/05/18 00:50:27;;;;;;;2.35;0.43;;;16.80;99.90;;;;;;4994216;28;20023;-74
2022/05/18 00:53:26;;;;;;;2.45;0.50;;;16.80;99.90;;;;;;4995589;28;20018;-75
2022/05/18 00:55:57;;;;;;;4.25;0.77;;;16.90;99.90;;;;;;4993689;28;20039;-74
2022/05/18 00:58:41;;;;;;;2.85;0.45;;;17.00;99.90;;;;;;4994199;28;20073;-74
2022/05/18 01:01:09;;;;;;;3.17;0.98;;;16.80;99.90;;;;;;4993943;28;20072;-74
2022/05/18 01:03:43;;;;;;;2.55;0.77;;;16.90;99.90;;;;;;4995361;28;20022;-74
2022/05/18 01:06:40;;;;;;;2.67;0.40;;;16.90;99.90;;;;;;4995169;28;20026;-75
2022/05/18 01:09:35;;;;;;;1.98;0.63;;;16.80;99.90;;;;;;4993657;28;20051;-74
2022/05/18 01:12:04;;;;;;;2.15;0.60;;;16.90;99.90;;;;;;4995057;28;20022;-74
2022/05/18 01:14:36;;;;;;;3.08;0.50;;;17.00;99.90;;;;;;4993755;28;20046;-75
2022/05/18 01:17:04;;;;;;;2.22;0.73;;;17.10;99.90;;;;;;4993618;28;20113;-74
2022/05/18 01:19:35;;;;;;;1.77;0.70;;;17.00;99.90;;;;;;4994802;28;20494;-76
2022/05/18 01:22:17;;;;;;;3.15;0.85;;;17.10;99.90;;;;;;4993552;28;20438;-75
2022/05/18 01:25:09;;;;;;;4.78;0.82;;;17.20;99.90;;;;;;4993568;28;20030;-75
2022/05/18 01:27:37;;;;;;;2.30;0.82;;;17.40;99.90;;;;;;4993500;28;20026;-76
2022/05/18 01:30:06;;;;;;;2.80;0.90;;;17.50;99.90;;;;;;4993579;28;20049;-76
2022/05/18 01:32:49;;;;;;;3.63;0.70;;;17.40;99.90;;;;;;4993342;28;20475;-75
2022/05/18 01:35:20;;;;;;;1.40;0.50;;;17.40;99.90;;;;;;4994635;28;20142;-75
2022/05/18 01:37:48;;;;;;;5.22;0.55;;;17.50;99.90;;;;;;4993267;28;20081;-76
2022/05/18 01:40:19;;;;;;;2.72;0.60;;;17.60;99.90;;;;;;4994744;28;20447;-75
2022/05/18 01:43:05;;;;;;;1.70;0.60;;;17.60;99.90;;;;;;4994891;28;20029;-76
2022/05/18 01:45:32;;;;;;;1.73;0.55;;;17.70;99.90;;;;;;4994887;28;20022;-76
2022/05/18 01:48:12;;;;;;;2.85;0.45;;;17.60;99.90;;;;;;4993454;28;20027;-75
2022/05/18 01:50:41;;;;;;;4.43;1.20;;;17.70;99.90;;;;;;4994553;28;20110;-75
2022/05/18 01:53:09;;;;;;;2.88;0.60;;;17.90;99.90;;;;;;4993066;28;20058;-75
2022/05/18 01:55:39;;;;;;;3.28;0.50;;;;;;;;;;4993492;28;20027;-76
2022/05/18 01:58:06;;;;;;;1.15;0.38;;;;;;;;;;4993016;28;20022;-76
2022/05/18 02:00:33;;;;;;;3.65;0.63;;;;;;;;;;4993055;28;20154;-73
2022/05/18 02:03:02;;;;;;;4.38;0.82;;;;;;;;;;4992889;28;20109;-75
2022/05/18 02:05:30;;;;;;;3.75;0.55;;;;;;;;;;4994374;28;20475;-76
2022/05/18 02:07:57;;;;;;;1.55;0.40;;;;;;;;;;4994006;28;20524;-74
2022/05/18 02:10:24;;;;;;;2.95;0.50;;;;;;;;;;4992877;28;20495;-75
2022/05/18 02:12:52;;;;;;;4.50;0.80;;;;;;;;;;4992754;28;20022;-75
2022/05/18 02:15:20;;;;;;;2.80;0.50;;;;;;;;;;4994055;28;20023;-75
2022/05/18 02:17:47;;;;;;;5.03;1.27;;;;;;;;;;4993933;28;20034;-75
2022/05/18 02:20:14;;;;;;;2.88;0.52;;;;;;;;;;4992623;28;20447;-75
2022/05/18 02:22:41;;;;;;;2.15;0.52;;;;;;;;;;4993848;28;20030;-75
2022/05/18 02:25:08;;;;;;;1.45;0.50;;;;;;;;;;4992583;28;20407;-75
2022/05/18 02:27:36;;;;;;;4.30;0.80;;;;;;;;;;4993827;28;20069;-75
2022/05/18 02:30:04;;;;;;;2.38;0.70;;;;;;;;;;4993717;28;20046;-75
2022/05/18 02:32:31;;;;;;;2.88;0.77;;;;;;;;;;4993940;28;20018;-75
2022/05/18 02:34:59;;;;;;;3.65;0.68;;;;;;;;;;4992405;28;20080;-74
2022/05/18 02:37:26;;;;;;;3.60;0.68;;;;;;;;;;4993663;28;20033;-72
2022/05/18 02:39:54;;;;;;;3.78;1.05;;;;;;;;;;4993615;28;20367;-72
2022/05/18 02:42:21;;;;;;;1.48;0.30;;;;;;;;;;4993855;28;20026;-72
2022/05/18 02:44:48;;;;;;;2.60;0.65;;;;;;;;;;4992247;28;20034;-72
2022/05/18 02:47:15;;;;;;;3.40;0.40;;;;;;;;;;4993337;28;20054;-73
2022/05/18 02:49:42;;;;;;;3.50;0.85;;;;;;;;;;4993473;28;20027;-73
2022/05/18 02:52:09;;;;;;;2.20;0.50;;;;;;;;;;4993536;28;20097;-72
2022/05/18 02:57:22;;;;;;;1.73;0.52;;;;;;;;;;4993706;28;20034;-71
2022/05/18 02:59:49;;;;;;;4.32;0.80;;;;;;;;;;4993614;28;20034;-71
2022/05/18 03:02:16;;;;;;;3.40;0.52;;;;;;;;;;4993496;28;20033;-71
2022/05/18 03:04:44;;;;;;;2.33;0.50;;;;;;;;;;4993476;28;20033;-71
2022/05/18 03:07:11;;;;;;;3.17;0.68;;;;;;;;;;4992028;28;20399;-72
2022/05/18 03:09:38;;;;;;;3.75;0.50;;;;;;;;;;4993048;28;20042;-72
2022/05/18 03:12:06;;;;;;;2.75;0.80;;;;;;;;;;4993391;28;20044;-72
2022/05/18 03:14:33;;;;;;;2.20;0.50;;;;;;;;;;4993267;28;20030;-71
2022/05/18 03:17:01;;;;;;;1.52;0.82;;;;;;;;;;4993302;28;20026;-71
2022/05/18 03:19:29;;;;;;;2.95;0.75;;;;;;;;;;4993263;28;20438;-72
2022/05/18 03:24:41;;;;;;;1.52;0.40;;;;;;;;;;4993499;28;20154;-71
2022/05/18 03:27:08;;;;;;;2.03;0.30;;;;;;;;;;4993123;28;20023;-72
2022/05/18 03:29:35;;;;;;;2.13;0.40;;;;;;;;;;4991828;28;20395;-71
2022/05/18 03:32:02;;;;;;;1.23;0.50;;;;;;;;;;4993074;28;20094;-71
2022/05/18 03:34:30;;;;;;;1.33;0.60;;;;;;;;;;4991859;28;20023;-72
2022/05/18 03:36:57;;;;;;;3.28;0.65;;;;;;;;;;4993379;28;20101;-72
2022/05/18 03:39:24;;;;;;;3.53;0.50;;;;;;;;;;4993153;28;20399;-73
2022/05/18 03:41:52;;;;;;;3.30;0.43;;;;;;;;;;4993019;28;20030;-71
2022/05/18 03:44:20;;;;;;;1.17;0.40;;;;;;;;;;4991761;28;20022;-70
2022/05/18 03:46:47;;;;;;;2.65;0.60;;;;;;;;;;4992949;28;20080;-71
2022/05/18 03:49:14;;;;;;;0.88;0.28;;;;;;;;;;4993000;28;20018;-71
2022/05/18 03:51:42;;;;;;;3.70;0.50;;;;;;;;;;4991720;28;20026;-71
2022/05/18 03:54:10;;;;;;;2.55;0.47;;;;;;;;;;4993115;28;20146;-71
2022/05/18 03:56:37;;;;;;;0.63;0.20;;;;;;;;;;4993132;28;20068;-71
2022/05/18 03:59:04;;;;;;;1.33;0.32;;;;;;;;;;4994988;28;20529;-71
2022/05/18 04:01:31;;;;;;;0.63;0.22;;;;;;;;;;4996724;28;20463;-72
2022/05/18 04:03:59;;;;;;;2.28;0.50;;;;;;;;;;4996595;28;20144;-72
2022/05/18 04:06:26;;;;;;;0.90;0.30;;;;;;;;;;4996372;28;20081;-72
2022/05/18 04:08:54;;;;;;;2.03;0.30;;;;;;;;;;4996181;28;20431;-71
2022/05/18 04:11:21;;;;;;;2.22;0.70;;;;;;;;;;4994984;28;20376;-72
2022/05/18 04:13:48;;;;;;;3.35;0.40;;;;;;;;;;4996281;28;20018;-72
2022/05/18 04:16:15;;;;;;;1.67;0.60;;;;;;;;;;4996235;28;20018;-72
2022/05/18 04:18:42;;;;;;;1.63;0.52;;;;;;;;;;4996169;28;20027;-72
2022/05/18 04:21:10;;;;;;;3.10;0.40;;;;;;;;;;4996121;28;20022;-72
2022/05/18 04:23:41;;;;;;;4.25;0.80;;;;;;;;;;4996380;28;20101;-72
2022/05/18 04:26:09;;;;;;;0.73;0.30;;;;;;;;;;4996050;28;20023;-72
2022/05/18 04:28:36;;;;;;;1.52;0.30;;;;;;;;;;4996126;28;20038;-72
2022/05/18 04:31:03;;;;;;;1.08;0.30;;;;;;;;;;4996079;28;20026;-72
2022/05/18 04:33:31;;;;;;;3.10;0.57;;;;;;;;;;4994635;28;20057;-71
2022/05/18 04:36:02;;;;;;;1.80;0.45;;;;;;;;;;4996176;28;20073;-71
2022/05/18 04:38:29;;;;;;;1.60;0.50;;;;;;;;;;4995835;28;20029;-71
2022/05/18 04:40:57;;;;;;;2.25;0.60;;;;;;;;;;4995809;28;20022;-71
2022/05/18 04:43:24;;;;;;;2.80;0.70;;;;;;;;;;4995725;28;20027;-70
2022/05/18 04:45:52;;;;;;;1.88;0.55;;;;;;;;;;4995940;28;20027;-71
2022/05/18 04:48:20;;;;;;;1.35;0.40;;;;;;;;;;4995513;28;20026;-71
2022/05/18 04:50:48;;;;;;;2.30;0.55;;;;;;;;;;4995675;28;20037;-71
2022/05/18 04:53:15;;;;;;;2.35;0.60;;;;;;;;;;4995665;28;20022;-71
2022/05/18 04:55:42;;;;;;;1.38;0.57;;;;;;;;;;4995617;28;20102;-71
2022/05/18 04:58:10;;;;;;;1.50;0.30;;;;;;;;;;4995648;28;20033;-72
2022/05/18 05:00:37;;;;;;;2.03;0.60;;;;;;;;;;4995714;28;20093;-71
2022/05/18 05:03:04;;;;;;;3.67;0.82;;;;;;;;;;4995401;28;20110;-70
2022/05/18 05:05:32;;;;;;;1.88;0.40;;;;;;;;;;4995310;28;20391;-70
2022/05/18 05:07:59;;;;;;;1.67;0.35;;;;;;;;;;4994960;28;20050;-71
2022/05/18 05:10:26;;;;;;;3.47;0.75;;;;;;;;;;4995123;28;20015;-71
2022/05/18 05:12:53;;;;;;;2.05;0.50;;;;;;;;;;4995432;28;20030;-71
2022/05/18 05:15:21;;;;;;;4.40;0.57;;;;;;;;;;4993895;28;20084;-71
2022/05/18 05:17:48;;;;;;;2.30;0.50;;;;;;;;;;4995158;28;20027;-70
2022/05/18 05:20:15;;;;;;;0.98;0.40;;;;;;;;;;4995245;28;20023;-71
2022/05/18 05:22:42;;;;;;;2.47;0.52;;;;;;;;;;4994901;28;20030;-72
2022/05/18 05:25:10;;;;;;;3.00;0.50;;;;;;;;;;4994928;28;20364;-72
2022/05/18 05:27:37;;;;;;;2.05;0.50;;;;;;;;;;4993576;28;20057;-73
2022/05/18 05:30:05;;;;;;;1.77;0.50;;;;;;;;;;4993529;28;20023;-72
2022/05/18 05:32:33;;;;;;;1.95;0.52;;;;;;;;;;4994743;28;20029;-72
2022/05/18 05:35:00;;;;;;;1.83;0.57;;;;;;;;;;4993361;28;20022;-72
2022/05/18 05:37:27;;;;;;;1.65;0.60;;;;;;;;;;4994568;28;20065;-71
2022/05/18 05:39:55;;;;;;;2.25;0.40;;;;;;;;;;4993261;28;20113;-71
2022/05/18 05:42:23;;;;;;;2.65;0.70;;;;;;;;;;4994521;28;20030;-71
2022/05/18 05:44:51;;;;;;;2.65;0.40;;;;;;;;;;4994668;28;20098;-71
2022/05/18 05:47:18;;;;;;;3.42;0.75;;;;;;;;;;4994355;28;20036;-71
2022/05/18 05:49:45;;;;;;;2.22;0.60;;;;;;;;;;4994417;28;20448;-71
2022/05/18 05:52:13;;;;;;;2.55;0.68;;;;;;;;;;4993110;28;20026;-73
2022/05/18 05:54:43;;;;;;;3.88;0.65;;;;;;;;;;4993021;28;20029;-72
2022/05/18 05:57:10;;;;;;;1.52;0.57;;;;;;;;;;4993088;28;20050;-72
2022/05/18 05:59:38;;;;;;;2.15;0.60;;;;;;;;;;4994250;28;20033;-72
2022/05/18 06:02:07;;;;;;;1.00;0.32;;;;;;;;;;4992875;28;20037;-71
2022/05/18 06:04:35;;;;;;;2.17;0.43;;;;;;;;;;4994152;28;20027;-71
2022/05/18 06:07:02;;;;;;;2.40;0.55;;;;;;;;;;4992625;28;20398;-71
2022/05/18 06:09:29;;;;;;;2.40;0.70;;;;;;;;;;4993518;28;20046;-72
2022/05/18 06:11:57;;;;;;;2.05;0.52;;;;;;;;;;4994130;28;20037;-72
2022/05/18 06:14:24;;;;;;;2.05;0.57;;;;;;;;;;4993978;28;20377;-72
2022/05/18 06:16:51;;;;;;;1.92;0.50;;;;;;;;;;4994051;28;20177;-71
2022/05/18 06:19:18;;;;;;;1.73;0.50;;;;;;;;;;4994004;28;20029;-73
2022/05/18 06:21:50;;;;;;;2.47;0.47;;;;;;;;;;4993414;28;20041;-73
2022/05/18 06:24:18;;;;;;;1.30;0.50;;;;;;;;;;4994173;28;20177;-73
2022/05/18 06:26:45;;;;;;;2.70;0.60;;;;;;;;;;4993789;28;20030;-73
2022/05/18 06:29:12;;;;;;;2.22;0.60;;;;;;;;;;4993854;28;20014;-73
2022/05/18 06:31:40;;;;;;;0.77;0.40;;;;;;;;;;4992411;28;20022;-73
2022/05/18 06:34:07;;;;;;;5.65;1.40;;;;;;;;;;4992386;28;20510;-73
2022/05/18 06:36:34;;;;;;;1.75;0.80;;;;;;;;;;4993576;28;20037;-73
2022/05/18 06:39:02;;;;;;;2.70;0.50;;;;;;;;;;4993733;28;20034;-71
2022/05/18 06:41:29;;;;;;;2.38;0.63;;;;;;;;;;4992275;28;20031;-73
2022/05/18 06:43:58;;;;;;;1.42;0.40;;;;;;;;;;4993667;28;20026;-72
2022/05/18 06:46:26;;;;;;;2.65;0.52;;;;;;;;;;4992123;28;20088;-72
2022/05/18 06:48:55;;;;;;;1.35;0.60;;;;;;;;;;4993841;28;20097;-72
2022/05/18 06:51:27;;;;;;;1.05;0.50;;;;;;;;;;4992251;28;20483;-73
2022/05/18 06:53:56;;;;;;;2.72;0.77;;;;;;;;;;4992349;28;20026;-72
2022/05/18 06:56:26;;;;;;;4.07;0.90;;;;;;;;;;4993682;28;20049;-72
2022/05/18 06:58:53;;;;;;;1.30;0.73;;;;;;;;;;4993730;28;20022;-73
2022/05/18 07:01:21;;;;;;;1.80;0.77;;;;;;;;;;4993906;28;20048;-73
2022/05/18 07:03:48;;;;;;;1.73;0.60;;;;;;;;;;4993450;28;20031;-72
2022/05/18 07:06:18;;;;;;;1.73;0.75;;;;;;;;;;4993139;28;20023;-73
2022/05/18 07:08:45;;;;;;;2.10;0.70;;;;;;;;;;4993038;28;20577;-73
2022/05/18 07:11:12;;;;;;;2.92;0.63;;;;;;;;;;4993241;28;20118;-73
2022/05/18 07:13:39;;;;;;;1.38;0.52;;;;;;;;;;4993175;28;20033;-72
2022/05/18 07:16:07;;;;;;;1.92;0.85;;;;;;;;;;4993305;28;20033;-72
2022/05/18 07:18:35;;;;;;;1.83;0.90;;;;;;;;;;4993049;28;20431;-73
2022/05/18 07:21:04;;;;;;;3.75;0.80;;;;;;;;;;4992070;28;20109;-74
2022/05/18 07:23:32;;;;;;;2.78;0.80;;;;;;;;;;4993564;28;20045;-71
2022/05/18 07:25:59;;;;;;;1.00;0.70;;;;;;;;;;4991993;28;20023;-72
2022/05/18 07:28:27;;;;;;;2.38;0.80;;;;;;;;;;4993309;28;20026;-72
2022/05/18 07:30:54;;;;;;;2.10;0.70;;;;;;;;;;4993442;28;20026;-73
2022/05/18 07:33:22;;;;;;;2.50;0.68;;;;;;;;;;4994259;28;20442;-72
2022/05/18 07:35:50;;;;;;;1.75;0.60;;;;;;;;;;4997034;28;20462;-72
2022/05/18 07:38:18;;;;;;;2.13;0.70;;;;;;;;;;4996907;28;20419;-73
2022/05/18 07:40:47;;;;;;;2.25;0.60;;;;;;;;;;4997012;28;20476;-73
2022/05/18 07:43:14;;;;;;;3.17;1.00;;;;;;;;;;4996805;28;20076;-73
2022/05/18 07:45:41;;;;;;;2.33;1.13;;;;;;;;;;4996937;28;20031;-73
2022/05/18 07:48:09;;;;;;;0.98;0.55;;;;;;;;;;4996682;28;20059;-74
2022/05/18 07:50:36;;;;;;;1.88;0.88;;;;;;;;;;4995407;28;20022;-74
2022/05/18 07:53:03;;;;;;;1.45;0.68;;;;;;;;;;4995437;28;20054;-71
2022/05/18 07:55:30;;;;;;;3.42;1.00;;;;;;;;;;4996847;28;20030;-73
2022/05/18 07:57:58;;;;;;;2.75;0.82;;;;;;;;;;4996631;28;20034;-74
2022/05/18 08:00:25;;;;;;;1.98;0.68;;;;;;;;;;4995351;28;20035;-75
2022/05/18 08:02:52;;;;;;;2.65;0.50;;;;;;;;;;4995252;28;20403;-75
2022/05/18 08:05:20;;;;;;;2.92;0.63;;;;;;;;;;4996471;28;20082;-74
2022/05/18 08:07:47;;;;;;;2.40;0.82;;;;;;;;;;4994766;28;20113;-73
2022/05/18 08:15:51;;;;;;;3.10;0.73;;;;;;;;;;4996515;28;20092;-73
2022/05/18 08:18:18;;;;;;;3.53;1.00;;;;;;;;;;4996248;28;20372;-74
2022/05/18 08:20:46;;;;;;;2.58;0.77;;;;;;;;;;4996005;28;20026;-74
2022/05/18 08:23:14;;;;;;;1.52;0.63;;;;;;;;;;4994731;28;20030;-75
2022/05/18 08:25:46;;;;;;;5.07;0.90;;;;;;;;;;4994742;28;20030;-73
2022/05/18 08:28:14;;;;;;;3.20;1.02;;;;;;;;;;4994526;28;20414;-74
2022/05/18 08:30:42;;;;;;;3.10;1.00;;;;;;;;;;4994626;28;20486;-75
2022/05/18 08:33:09;;;;;;;1.85;1.00;;;;;;;;;;4994466;28;20100;-73
2022/05/18 08:35:36;;;;;;;1.70;0.70;;;;;;;;;;4994638;28;20052;-75
2022/05/18 08:38:04;;;;;;;2.88;0.80;;;;;;;;;;4995765;28;20037;-74
2022/05/18 08:40:31;;;;;;;2.78;0.60;;;;;;;;;;4995691;28;20022;-73
2022/05/18 08:43:04;;;;;;;1.30;0.70;;;;;;;;;;4994312;28;20081;-75
2022/05/18 08:45:33;;;;;;;4.85;1.92;;;;;;;;;;4995017;28;20046;-73
2022/05/18 08:48:06;;;;;;;1.92;0.90;;;;;;;;;;4995621;28;20446;-75
2022/05/18 08:50:34;;;;;;;3.30;0.73;;;;;;;;;;4994376;28;20026;-75
2022/05/18 08:53:07;;;;;;;4.25;0.90;;;;;;;;;;4995711;28;20053;-75
2022/05/18 08:55:37;;;;;;;4.45;0.90;;;;;;;;;;4995666;28;20033;-74
2022/05/18 08:58:08;;;;;;;3.38;1.00;;;;;;;;;;4995467;28;20065;-74
2022/05/18 09:00:37;;;;;;;2.22;0.80;;;;;;;;;;4995698;28;20114;-75
2022/05/18 09:03:10;;;;;;;3.17;0.95;;;;;;;;;;4994107;28;20088;-77
2022/05/18 09:05:47;;;;;;;4.05;0.80;;;;;;;;;;4994086;28;20074;-78
2022/05/18 09:08:17;;;;;;;2.65;0.80;;;;;;;;;;4995036;28;20042;-76
2022/05/18 09:10:49;;;;;;;2.72;1.17;;;;;;;;;;4995421;28;20045;-76
2022/05/18 09:13:16;;;;;;;2.22;0.80;;;;;;;;;;4993889;28;20039;-76
2022/05/18 09:15:47;;;;;;;2.17;0.98;;;;;;;;;;4995284;28;20066;-76
2022/05/18 09:18:21;;;;;;;2.67;1.27;;;;;;;;;;4995077;28;20065;-75
2022/05/18 09:20:49;;;;;;;3.75;1.05;;;;;;;;;;4995392;28;20022;-78
2022/05/18 09:23:16;;;;;;;3.53;1.08;;;;;;;;;;4995145;28;20023;-76
2022/05/18 09:25:43;;;;;;;3.25;1.08;;;;;;;;;;4993680;28;20395;-76
2022/05/18 09:28:23;;;;;;;9.00;6.70;;;;;;;;;;4994998;28;20030;-76
2022/05/18 09:30:56;;;;;;;1.77;1.00;;;;;;;;;;4995176;28;20393;-78
2022/05/18 09:33:41;;;;;;;3.20;1.50;;;;;;;;;;4994822;28;20022;-76
2022/05/18 09:36:21;;;;;;;2.80;1.02;;;;;;;;;;4993595;28;20499;-77
2022/05/18 09:39:09;;;;;;;4.18;1.98;;;;;;;;;;4993951;28;20034;-76
2022/05/18 09:41:39;;;;;;;1.25;0.70;;;;;;;;;;4994689;28;20511;-76
2022/05/18 09:44:26;;;;;;;2.85;1.20;;;;;;;;;;4994777;28;20026;-75
2022/05/18 09:46:54;;;;;;;1.17;0.68;;;;;;;;;;4987303;28;20045;-76
2022/05/18 09:49:33;;;;;;;3.33;0.90;;;;;;;;;;4994383;28;20022;-75
2022/05/18 09:52:02;;;;;;;1.63;0.60;;;;;;;;;;4994769;28;20029;-74
2022/05/18 09:54:33;;;;;;;2.58;0.85;;;;;;;;;;4994524;28;20022;-75
2022/05/18 09:56:59;;;;;;;;;;;;;;;;;;4993832;28;20022;-74
2022/05/18 09:59:30;;;;;;;1.77;0.70;;;;;;;;;;4994663;28;19936;-72
2022/05/18 10:07:34;;;;;;;2.05;0.63;;;;;;;;;;4994333;28;20089;-74
2022/05/18 10:10:03;;;;;;;2.83;0.55;;;;;;;;;;4992969;28;20129;-75
2022/05/18 10:12:39;;;;;;;1.75;0.60;;;;;;;;;;4994198;28;20014;-75
2022/05/18 10:15:20;;;;;;;1.98;0.40;;;;;;;;;;4994378;28;20033;-75
2022/05/18 10:17:50;;;;;;;1.30;0.50;;;;;;;;;;4992778;28;20109;-74
2022/05/18 10:20:35;;;;;;;1.53;0.43;;;;;;;;;;4994316;28;20390;-73
2022/05/18 10:23:03;;;;;;;1.50;0.30;;;;;;;;;;4994308;28;20030;-73
2022/05/18 10:25:33;;;;;;;0.85;0.30;;;;;;;;;;4992746;28;20030;-74
2022/05/18 10:28:04;;;;;;;2.58;0.55;;;;;;;;;;4993952;28;20026;-74
2022/05/18 10:30:35;;;;;;;1.40;0.63;;;;;;;;;;4992548;28;20022;-73
2022/05/18 10:33:18;;;;;;;1.27;0.40;;;;;;;;;;4994061;28;20382;-75
2022/05/18 10:35:47;;;;;;;2.55;0.75;;;;;;;;;;4994066;28;20018;-75
2022/05/18 10:38:32;;;;;;;2.30;0.70;;;;;;;;;;4992530;28;20044;-75
2022/05/18 10:41:06;;;;;;;0.90;0.40;;;;;;;;;;4993778;28;20026;-74
2022/05/18 10:43:37;;;;;;;0.73;0.20;;;;;;;;;;4992479;28;20109;-75
2022/05/18 10:46:16;;;;;;;1.05;0.20;;;;;;;;;;4993698;28;20573;-75
2022/05/18 10:48:51;;;;;;;2.38;0.40;;;;;;;;;;4993834;28;20037;-75
2022/05/18 10:51:27;;;;;;;0.63;0.35;;;;;;;;;;4993947;28;20065;-75
2022/05/18 10:54:06;;;;;;;1.70;0.50;;;;;;;;;;4992327;28;20027;-76
2022/05/18 10:56:33;;;;;;;2.20;0.20;;;;;;;;;;4993672;28;20029;-76
2022/05/18 10:59:20;;;;;;;0.38;0.20;;;;;;;;;;4993906;28;20479;-74
2022/05/18 11:02:01;;;;;;;1.83;0.38;;;;;;;;;;4993725;28;20022;-77
2022/05/18 11:04:33;;;;;;;0.63;0.35;;;;;;;;;;4992203;28;20053;-75
2022/05/18 11:07:02;;;;;;;2.30;0.20;;;;;;;;;;4994116;28;20033;-76
2022/05/18 11:09:30;;;;;;;0.82;0.50;;;;;;;;;;4996560;28;20057;-76
2022/05/18 11:11:58;;;;;;;0.73;0.20;;;;;;;;;;4997848;28;20028;-77
2022/05/18 11:14:37;;;;;;;2.80;0.30;;;;;;;;;;4997277;28;20092;-76
2022/05/18 11:17:22;;;;;;;2.08;0.30;;;;;;;;;;4998025;28;20443;-77
2022/05/18 11:19:55;;;;;;;3.53;0.20;;;;;;;;;;4997015;28;20054;-75
2022/05/18 11:22:34;;;;;;;3.83;0.40;;;;;;;;;;4997914;28;20022;-76
2022/05/18 11:25:02;;;;;;;0.82;0.40;;;;;;;;;;4997366;28;20031;-76
2022/05/18 11:27:48;;;;;;;1.38;0.30;;;;;;;;;;4996651;28;20464;-77
2022/05/18 11:30:19;;;;;;;2.17;0.25;;;;;;;;;;4998583;28;20092;-75
2022/05/18 11:33:11;;;;;;;1.17;0.30;;;;;;;;;;4997838;28;20034;-75
2022/05/18 11:36:04;;;;;;;1.27;0.30;;;;;;;;;;4997602;28;20037;-75
2022/05/18 11:38:42;;;;;;;1.02;0.20;;;;;;;;;;4982084;28;20069;-75
2022/05/18 11:41:22;;;;;;;0.50;0.30;;;;;;;;;;4997878;28;20022;-75
2022/05/18 11:44:02;;;;;;;0.77;0.40;;;;;;;;;;4995979;28;20033;-77
2022/05/18 11:46:41;;;;;;;1.88;0.40;;;;;;;;;;4997121;28;20023;-76
2022/05/18 11:49:23;;;;;;;0.85;0.30;;;;;;;;;;4995679;28;20499;-77
2022/05/18 11:52:09;;;;;;;1.25;0.65;;;;;;;;;;4996892;28;20027;-75
2022/05/18 11:54:50;;;;;;;1.95;0.40;;;;;;;;;;4997293;28;20018;-75
2022/05/18 11:57:20;;;;;;;1.05;0.30;;;;;;;;;;4996933;28;20034;-75
2022/05/18 12:00:03;;;;;;;1.20;0.30;;;;;;;;;;4995366;28;20088;-75
2022/05/18 12:02:36;;;;;;;0.60;0.25;;;;;;;;;;4995380;28;20040;-75
2022/05/18 12:05:19;;;;;;;1.90;0.50;;;;;;;;;;4996481;28;20415;-75
2022/05/18 12:07:52;;;;;;;1.60;0.43;;;;;;;;;;4996186;28;20023;-75
2022/05/18 12:10:29;;;;;;;1.15;0.40;;;;;;;;;;4996571;28;20041;-75
2022/05/18 12:13:06;;;;;;;1.10;0.40;;;;;;;;;;4995118;28;20124;-75
2022/05/18 12:15:37;;;;;;;0.93;0.45;;;;;;;;;;4996636;28;20510;-75
2022/05/18 12:18:10;;;;;;;2.38;0.43;;;;;;;;;;4996356;28;20105;-75
2022/05/18 12:20:37;;;;;;;2.97;0.40;;;;;;;;;;4994198;28;20494;-75
2022/05/18 12:23:07;;;;;;;0.90;0.35;;;;;;;;;;4996219;28;20074;-74
2022/05/18 12:25:35;;;;;;;2.10;0.40;;;;;;;;;;4996580;28;20030;-76
2022/05/18 12:28:04;;;;;;;1.27;0.40;;;;;;;;;;4996066;28;20564;-76
2022/05/18 12:30:33;;;;;;;1.33;0.40;;;;;;;;;;4994934;28;20023;-75
2022/05/18 12:33:03;;;;;;;0.70;0.10;;;;;;;;;;4995989;28;20019;-75
2022/05/18 12:35:48;;;;;;;1.40;0.47;;;;;;;;;;4996048;28;20360;-75
2022/05/18 12:38:24;;;;;;;1.95;0.35;;;;;;;;;;4996020;28;20029;-74
2022/05/18 12:41:06;;;;;;;2.92;0.52;;;;;;;;;;4996123;28;20044;-75
2022/05/18 12:43:38;;;;;;;0.95;0.40;;;;;;;;;;4994558;28;20029;-75
2022/05/18 12:46:09;;;;;;;0.95;0.30;;;;;;;;;;4996095;28;20116;-75
2022/05/18 12:48:44;;;;;;;0.60;0.25;;;;;;;;;;4994508;28;20185;-75
2022/05/18 12:51:14;;;;;;;2.53;0.40;;;;;;;;;;4995820;28;20025;-76
2022/05/18 12:53:46;;;;;;;0.90;0.27;;;;;;;;;;4995794;28;20029;-76
2022/05/18 12:56:19;;;;;;;1.08;0.43;;;;;;;;;;4994401;28;20026;-75
2022/05/18 12:58:53;;;;;;;1.95;0.40;;;;;;;;;;4994300;28;20097;-74
2022/05/18 13:01:21;;;;;;;1.50;0.30;;;;;;;;;;4996122;28;20033;-75
2022/05/18 13:03:52;;;;;;;1.17;0.40;;;;;;;;;;4994166;28;20077;-76
2022/05/18 13:06:24;;;;;;;1.13;0.40;;;;;;;;;;4995507;28;20101;-75
2022/05/18 13:08:57;;;;;;;2.70;0.30;;;;;;;;;;4995243;28;20038;-75
2022/05/18 13:11:24;;;;;;;0.80;0.32;;;;;;;;;;4995461;28;20026;-75
2022/05/18 13:14:17;;;;;;;1.00;0.25;;;;;;;;;;4995306;28;20077;-75
2022/05/18 13:16:44;;;;;;;0.80;0.30;;;;;;;;;;4991624;28;20422;-75
2022/05/18 13:19:15;;;;;;;1.90;0.40;;;;;;;;;;4995196;28;20018;-75
2022/05/18 13:21:52;;;;;;;1.58;0.38;;;;;;;;;;4995247;28;20019;-75
2022/05/18 13:24:20;;;;;;;1.15;0.30;;;;;;;;;;4995293;28;20453;-75
2022/05/18 13:26:49;;;;;;;2.45;0.60;;;;;;;;;;4993715;28;20037;-75
2022/05/18 13:29:18;;;;;;;10.80;2.83;;;;;;;;;;4994946;28;20019;-75
2022/05/18 13:31:49;;;;;;;1.85;0.38;;;;;;;;;;4993371;28;20026;-74
2022/05/18 13:34:19;;;;;;;1.23;0.30;;;;;;;;;;4993532;28;20455;-74
2022/05/18 13:36:59;;;;;;;0.65;0.38;;;;;;;;;;4995009;28;20066;-75
2022/05/18 13:39:36;;;;;;;1.35;0.40;;;;;;;;;;4995067;28;20102;-77
2022/05/18 13:42:13;;;;;;;2.28;0.63;;;;;;;;;;4995483;28;20015;-75
2022/05/18 13:44:41;;;;;;;0.95;0.38;;;;;;;;;;4995127;28;20026;-76
2022/05/18 13:47:13;;;;;;;1.48;0.85;;;;;;;;;;4994586;28;20023;-76
2022/05/18 13:49:41;;;;;;;0.82;0.38;;;;;;;;;;4994663;28;20034;-76
2022/05/18 13:52:12;;;;;;;2.20;0.40;;;;;;;;;;4994649;28;20498;-76
2022/05/18 13:54:41;;;;;;;0.88;0.30;;;;;;;;;;4993397;28;20023;-76
2022/05/18 13:57:10;;;;;;;1.17;0.45;;;;;;;;;;4993227;28;20057;-76
2022/05/18 13:59:44;;;;;;;0.82;0.22;;;;;;;;;;4993229;28;20030;-76
2022/05/18 14:02:20;;;;;;;1.35;0.30;;;;;;;;;;4993185;28;20022;-75
2022/05/18 14:04:49;;;;;;;2.45;0.40;;;;;;;;;;4994467;28;20428;-75
2022/05/18 14:07:17;;;;;;;1.70;0.30;;;;;;;;;;4994417;28;20026;-75
2022/05/18 14:09:45;;;;;;;0.98;0.35;;;;;;;;;;4994346;28;20042;-76
2022/05/18 14:12:16;;;;;;;1.27;0.30;;;;;;;;;;4993041;28;20026;-75
2022/05/18 14:14:44;;;;;;;1.23;0.40;;;;;;;;;;4992906;28;20034;-75
2022/05/18 14:17:19;;;;;;;2.60;0.32;;;;;;;;;;4994285;28;20505;-76
2022/05/18 14:19:48;;;;;;;1.75;0.35;;;;;;;;;;4994405;28;20102;-76
2022/05/18 14:22:20;;;;;;;2.50;0.50;;;;;;;;;;4993383;28;20049;-77
2022/05/18 14:24:57;;;;;;;1.23;0.38;;;;;;;;;;4993096;28;20022;-76
2022/05/18 14:27:33;;;;;;;1.02;0.30;;;;;;;;;;4994004;28;20025;-76
2022/05/18 14:30:03;;;;;;;1.95;0.30;;;;;;;;;;4993975;28;20025;-77
2022/05/18 14:32:35;;;;;;;1.73;0.35;;;;;;;;;;4992660;28;20026;-77
2022/05/18 14:35:05;;;;;;;0.82;0.30;;;;;;;;;;4992680;28;20513;-77
2022/05/18 14:37:34;;;;;;;2.72;0.32;;;;;;;;;;4992623;28;20371;-77
2022/05/18 14:40:02;;;;;;;2.50;0.30;;;;;;;;;;4992605;28;20034;-78
2022/05/18 14:42:31;;;;;;;1.98;0.45;;;;;;;;;;4991923;28;20034;-77
2022/05/18 14:45:06;;;;;;;0.93;0.30;;;;;;;;;;4993897;28;20098;-77
2022/05/18 14:47:33;;;;;;;2.80;0.60;;;;;;;;;;4993664;28;20390;-77
2022/05/18 14:50:15;;;;;;;3.33;0.50;;;;;;;;;;4993766;28;20094;-77
2022/05/18 14:52:51;;;;;;;2.42;0.43;;;;;;;;;;4992481;28;20041;-78
2022/05/18 14:55:26;;;;;;;1.45;0.40;;;;;;;;;;4992378;28;20368;-76
2022/05/18 14:57:54;;;;;;;1.15;0.20;;;;;;;;;;4992331;28;20034;-76
2022/05/18 15:00:27;;;;;;;1.30;0.30;;;;;;;;;;4992295;28;20491;-76
2022/05/18 15:03:01;;;;;;;1.15;0.30;;;;;;;;;;4994147;28;20103;-76